Elwood, Indiana
Current Conditions -  °F | °C
As of 9:15 PM on Thursday 20 Nov 2014 (Local Time) from KMZZ Reporting Station
Clear Clear  
Wind Chill:   Ceiling: Unl
Heat Index: 18°   Visibility: 10mi
Dew Point: 11°   Wind: 10mph
Humidity: 73%   Direction: 280°W
Pressure: 30.19"   Gusts: NA
Location:  40.28°N, 85.82°W
Report Text: KMZZ 210215Z AUTO 28009KT 10SM CLR M08/M12 A3019 RMK AO2 T10781118
Loading
Personal Weather Stations






























Interactive Weather Map New forecast layout! Learn more

10-Day Weather Forecast

Advertisements
Track Severe Weather on mobile